^^
Meteo Knjazevac Station Historical Data
Daily Summary for July 26, 2021 Units:  Metric    English   Both
Daily Weekly Monthly Yearly Custom
  High: Low: Average:
Temperature: 33.8 °C 15.2 °C 24.3 °C
Dew Point: 22.6 °C 14.2 °C 18.9 °C
Humidity: 95% 48% 74%
Wind Speed: 8km/h 0km/h 1.8km/h
Wind Gust: 12.9km/h - -
Wind- - South
Pressure: 1020.5 hPa 1018.8 hPa -
Precipitation: 0 mm    
Historical Graphs
 
 
Tabular Data for July 26, 2021
Time Temperature Dew Point Pressure Wind Wind Speed Wind Gust Humidity Rainfall Rate (Hourly) solar Conditions
00:00 19.4 °C 16.8 °C 1019.2 hPa West 1.6 km/h 3.2 km/h 85% 0 mm 0 W/m2
00:10 19.1 °C 16.5 °C 1019.2 hPa West 1.6 km/h 3.2 km/h 85% 0 mm 0 W/m2
00:20 18.8 °C 16.2 °C 1019.2 hPa WSW 1.6 km/h 3.2 km/h 85% 0 mm 0 W/m2
00:30 18.6 °C 16 °C 1019.2 hPa WNW 1.6 km/h 4.8 km/h 85% 0 mm 0 W/m2
00:40 18.5 °C 16.1 °C 1019.2 hPa Calm   3.2 km/h 86% 0 mm 0 W/m2
00:50 18.5 °C 16.1 °C 1019.2 hPa Calm   1.6 km/h 86% 0 mm 0 W/m2
01:00 18.3 °C 15.9 °C 1019.2 hPa Calm   3.2 km/h 86% 0 mm 0 W/m2
01:10 18.2 °C 16.2 °C 1019.2 hPa WNW 1.6 km/h 4.8 km/h 88% 0 mm 0 W/m2
01:20 18 °C 15.6 °C 1019.2 hPa WNW 1.6 km/h 8 km/h 86% 0 mm 0 W/m2
01:30 17.8 °C 15.8 °C 1018.8 hPa WSW 1.6 km/h 3.2 km/h 88% 0 mm 0 W/m2
01:40 17.6 °C 15.6 °C 1019.2 hPa WSW 3.2 km/h 4.8 km/h 88% 0 mm 0 W/m2
01:50 17.3 °C 15.4 °C 1019.2 hPa Calm   4.8 km/h 89% 0 mm 0 W/m2
02:00 17.1 °C 15.3 °C 1019.2 hPa Calm   4.8 km/h 89% 0 mm 0 W/m2
02:10 17 °C 15.2 °C 1019.2 hPa West 3.2 km/h 4.8 km/h 89% 0 mm 0 W/m2
02:20 17 °C 15.2 °C 1019.5 hPa Calm   6.4 km/h 89% 0 mm 0 W/m2
02:30 17 °C 15.2 °C 1019.5 hPa Calm   3.2 km/h 89% 0 mm 0 W/m2
02:40 17 °C 15.2 °C 1019.5 hPa Calm     89% 0 mm 0 W/m2
02:50 16.9 °C 15.2 °C 1019.5 hPa Calm   1.6 km/h 90% 0 mm 0 W/m2
03:00 16.6 °C 14.9 °C 1019.5 hPa WNW 1.6 km/h 3.2 km/h 90% 0 mm 0 W/m2
03:10 16.6 °C 14.9 °C 1019.5 hPa NW 1.6 km/h 3.2 km/h 90% 0 mm 0 W/m2
03:20 16.6 °C 14.9 °C 1019.5 hPa Calm     90% 0 mm 0 W/m2
03:30 16.4 °C 14.8 °C 1019.5 hPa West 1.6 km/h 3.2 km/h 90% 0 mm 0 W/m2
03:40 16.4 °C 14.9 °C 1019.5 hPa NNW 1.6 km/h 3.2 km/h 91% 0 mm 0 W/m2
03:50 16.1 °C 14.6 °C 1019.5 hPa West 1.6 km/h 3.2 km/h 91% 0 mm 0 W/m2
04:00 16 °C 14.6 °C 1019.5 hPa West 1.6 km/h 3.2 km/h 91% 0 mm 0 W/m2
04:10 15.9 °C 14.8 °C 1019.5 hPa WNW 1.6 km/h 3.2 km/h 93% 0 mm 0 W/m2
04:20 15.8 °C 14.7 °C 1019.5 hPa WSW 3.2 km/h 4.8 km/h 93% 0 mm 0 W/m2
04:30 15.7 °C 14.6 °C 1019.9 hPa West 3.2 km/h 6.4 km/h 93% 0 mm 0 W/m2
04:40 15.7 °C 14.6 °C 1019.5 hPa WSW 1.6 km/h 8 km/h 93% 0 mm 0 W/m2
04:50 15.5 °C 14.3 °C 1019.9 hPa WSW 1.6 km/h 4.8 km/h 93% 0 mm 0 W/m2
05:00 15.3 °C 14.3 °C 1019.9 hPa WSW 3.2 km/h 8 km/h 94% 0 mm 0 W/m2
05:10 15.3 °C 14.3 °C 1019.9 hPa West 1.6 km/h 3.2 km/h 94% 0 mm 0 W/m2
05:20 15.2 °C 14.2 °C 1019.9 hPa Calm   4.8 km/h 94% 0 mm 5 W/m2
05:30 15.2 °C 14.3 °C 1019.9 hPa West 1.6 km/h 3.2 km/h 94% 0 mm 12 W/m2
05:40 15.3 °C 14.3 °C 1019.9 hPa Calm   3.2 km/h 94% 0 mm 22 W/m2
05:50 15.3 °C 14.3 °C 1020.2 hPa Calm   3.2 km/h 94% 0 mm 30 W/m2
06:00 15.3 °C 14.3 °C 1020.2 hPa North 1.6 km/h 4.8 km/h 94% 0 mm 39 W/m2
06:10 15.4 °C 14.6 °C 1020.2 hPa Calm   4.8 km/h 95% 0 mm 51 W/m2
06:20 15.5 °C 14.7 °C 1020.2 hPa Calm   3.2 km/h 95% 0 mm 77 W/m2
06:30 15.6 °C 14.6 °C 1020.2 hPa Calm   3.2 km/h 94% 0 mm 107 W/m2
06:40 15.7 °C 14.7 °C 1020.2 hPa Calm   3.2 km/h 94% 0 mm 134 W/m2
06:50 15.8 °C 15 °C 1020.2 hPa Calm   3.2 km/h 95% 0 mm 166 W/m2
07:00 16 °C 15.1 °C 1020.5 hPa Calm   1.6 km/h 94% 0 mm 198 W/m2
07:10 16.2 °C 15.4 °C 1020.5 hPa Calm   3.2 km/h 95% 0 mm 219 W/m2
07:20 16.5 °C 15.6 °C 1020.5 hPa Calm   3.2 km/h 94% 0 mm 218 W/m2
07:30 16.8 °C 15.8 °C 1020.5 hPa Calm   1.6 km/h 94% 0 mm 249 W/m2
07:40 17.2 °C 16.2 °C 1020.5 hPa North 3.2 km/h 6.4 km/h 94% 0 mm 265 W/m2
07:50 17.7 °C 16.6 °C 1020.2 hPa NE 1.6 km/h 6.4 km/h 93% 0 mm 308 W/m2
08:00 18.1 °C 17.1 °C 1020.5 hPa Calm   3.2 km/h 94% 0 mm 346 W/m2
08:10 18.5 °C 17.2 °C 1020.5 hPa North 1.6 km/h 3.2 km/h 92% 0 mm 423 W/m2
08:20 19 °C 17.3 °C 1020.5 hPa WNW 1.6 km/h 3.2 km/h 90% 0 mm 420 W/m2
08:30 19.5 °C 17.8 °C 1020.5 hPa North 1.6 km/h 8 km/h 90% 0 mm 423 W/m2
08:40 20 °C 17.9 °C 1020.5 hPa Calm   6.4 km/h 88% 0 mm 455 W/m2
08:50 20.5 °C 17.9 °C 1020.5 hPa NW 1.6 km/h 4.8 km/h 85% 0 mm 520 W/m2
09:00 21.1 °C 18.3 °C 1020.5 hPa Calm   6.4 km/h 84% 0 mm 552 W/m2
09:10 22.1 °C 18.5 °C 1020.5 hPa NNE 3.2 km/h 9.7 km/h 80% 0 mm 606 W/m2
09:20 22.9 °C 19.1 °C 1020.5 hPa North 1.6 km/h 8 km/h 79% 0 mm 635 W/m2
09:30 23.6 °C 18.9 °C 1020.5 hPa North 4.8 km/h 9.7 km/h 75% 0 mm 655 W/m2
09:40 24.4 °C 19.4 °C 1020.5 hPa NNE 1.6 km/h 9.7 km/h 74% 0 mm 681 W/m2
09:50 25.1 °C 19.4 °C 1020.2 hPa NNE 3.2 km/h 8 km/h 71% 0 mm 714 W/m2
10:00 25.6 °C 19.5 °C 1020.2 hPa NNE 1.6 km/h 6.4 km/h 69% 0 mm 746 W/m2
10:10 26.2 °C 19.8 °C 1020.2 hPa NNE 1.6 km/h 8 km/h 68% 0 mm 768 W/m2
10:20 26.6 °C 20.1 °C 1020.5 hPa North 4.8 km/h 11.3 km/h 68% 0 mm 792 W/m2
10:30 26.8 °C 20.2 °C 1020.5 hPa North 1.6 km/h 8 km/h 67% 0 mm 808 W/m2
10:40 27.3 °C 20.2 °C 1020.2 hPa NNE 3.2 km/h 9.7 km/h 65% 0 mm 829 W/m2
10:50 27.7 °C 20.3 °C 1020.2 hPa ENE 8 km/h 11.3 km/h 64% 0 mm 271 W/m2
11:00 28.2 °C 20.7 °C 1020.2 hPa NNE 1.6 km/h 9.7 km/h 64% 0 mm 835 W/m2
11:10 28.5 °C 20.8 °C 1020.2 hPa NNE 4.8 km/h 11.3 km/h 63% 0 mm 879 W/m2
11:20 28.7 °C 20.7 °C 1020.2 hPa North 4.8 km/h 11.3 km/h 62% 0 mm 653 W/m2
11:30 29 °C 20.2 °C 1020.2 hPa NNW 1.6 km/h 9.7 km/h 59% 0 mm 908 W/m2
11:40 29.3 °C 20.8 °C 1020.2 hPa NE 3.2 km/h 9.7 km/h 60% 0 mm 922 W/m2
11:50 29.8 °C 20.9 °C 1020.2 hPa NE 3.2 km/h 11.3 km/h 59% 0 mm 931 W/m2
12:00 29.9 °C 20.7 °C 1020.2 hPa North 1.6 km/h 9.7 km/h 58% 0 mm 937 W/m2
12:10 30.1 °C 20.9 °C 1019.9 hPa NE 4.8 km/h 11.3 km/h 58% 0 mm 941 W/m2
12:20 30.3 °C 21.4 °C 1019.9 hPa NNE 1.6 km/h 9.7 km/h 59% 0 mm 944 W/m2
12:30 30.7 °C 20.9 °C 1020.2 hPa NNE 4.8 km/h 9.7 km/h 56% 0 mm 794 W/m2
12:40 30.8 °C 21.3 °C 1020.2 hPa North 1.6 km/h 11.3 km/h 57% 0 mm 946 W/m2
12:50 31.1 °C 21.6 °C 1020.2 hPa North 3.2 km/h 9.7 km/h 57% 0 mm 908 W/m2
13:00 31.1 °C 21.8 °C 1019.9 hPa NE 3.2 km/h 9.7 km/h 58% 0 mm 694 W/m2
13:10 31.1 °C 21.6 °C 1019.9 hPa Calm   8 km/h 57% 0 mm 616 W/m2
13:20 31.1 °C 21.6 °C 1019.9 hPa Calm   9.7 km/h 57% 0 mm 892 W/m2
13:30 31.2 °C 21.7 °C 1019.9 hPa North 1.6 km/h 8 km/h 57% 0 mm 850 W/m2
13:40 31.3 °C 21.8 °C 1019.9 hPa North 1.6 km/h 8 km/h 57% 0 mm 464 W/m2
13:50 31.3 °C 21.2 °C 1019.9 hPa Calm   6.4 km/h 55% 0 mm 752 W/m2
14:00 31.5 °C 21.4 °C 1019.9 hPa North 3.2 km/h 9.7 km/h 55% 0 mm 720 W/m2
14:10 31.7 °C 20.9 °C 1019.5 hPa North 1.6 km/h 8 km/h 53% 0 mm 877 W/m2
14:20 31.9 °C 21.2 °C 1019.5 hPa Calm   6.4 km/h 53% 0 mm 863 W/m2
14:30 32.3 °C 21.8 °C 1019.5 hPa North 1.6 km/h 4.8 km/h 54% 0 mm 846 W/m2
14:40 32.5 °C 21.7 °C 1019.5 hPa NW 1.6 km/h 4.8 km/h 53% 0 mm 829 W/m2
14:50 32.8 °C 21.9 °C 1019.5 hPa North 1.6 km/h 8 km/h 53% 0 mm 808 W/m2
15:00 32.9 °C 21.7 °C 1019.2 hPa SW 3.2 km/h 8 km/h 52% 0 mm 790 W/m2
15:10 33 °C 21.2 °C 1019.2 hPa WSW 1.6 km/h 8 km/h 50% 0 mm 769 W/m2
15:20 33 °C 22.2 °C 1019.2 hPa West 3.2 km/h 9.7 km/h 53% 0 mm 746 W/m2
15:30 33.2 °C 21.7 °C 1019.2 hPa WSW 1.6 km/h 9.7 km/h 51% 0 mm 690 W/m2
15:40 33.4 °C 21.2 °C 1018.8 hPa WSW 3.2 km/h 8 km/h 49% 0 mm 663 W/m2
15:50 33.3 °C 22.1 °C 1018.8 hPa WSW 1.6 km/h 8 km/h 52% 0 mm 640 W/m2
16:00 33.4 °C 21.6 °C 1018.8 hPa SW 1.6 km/h 6.4 km/h 50% 0 mm 638 W/m2
16:10 33.5 °C 21.7 °C 1018.8 hPa West 1.6 km/h 4.8 km/h 50% 0 mm 611 W/m2
16:20 33.7 °C 21.8 °C 1018.8 hPa Calm   6.4 km/h 50% 0 mm 553 W/m2
16:30 33.8 °C 22.3 °C 1018.8 hPa North 3.2 km/h 8 km/h 51% 0 mm 541 W/m2
16:40 33.8 °C 21.3 °C 1018.8 hPa North 3.2 km/h 8 km/h 48% 0 mm 510 W/m2
16:50 33.8 °C 21.3 °C 1018.8 hPa NNW 3.2 km/h 8 km/h 48% 0 mm 470 W/m2
17:00 33.8 °C 21.3 °C 1018.8 hPa North 1.6 km/h 9.7 km/h 48% 0 mm 437 W/m2
17:10 33.8 °C 22.6 °C 1018.8 hPa North 8 km/h 11.3 km/h 52% 0 mm 405 W/m2
17:20 33.6 °C 22.4 °C 1018.8 hPa North 4.8 km/h 9.7 km/h 52% 0 mm 373 W/m2
17:30 33.3 °C 22.1 °C 1019.2 hPa North 3.2 km/h 12.9 km/h 52% 0 mm 338 W/m2
17:40 33.1 °C 22.6 °C 1018.8 hPa NNW 4.8 km/h 11.3 km/h 54% 0 mm 302 W/m2
17:50 32.9 °C 22.1 °C 1018.8 hPa North 3.2 km/h 9.7 km/h 53% 0 mm 269 W/m2
18:00 32.6 °C 21.8 °C 1019.2 hPa North 3.2 km/h 11.3 km/h 53% 0 mm 233 W/m2
18:10 32.3 °C 21.8 °C 1018.8 hPa North 3.2 km/h 8 km/h 54% 0 mm 203 W/m2
18:20 32.1 °C 21.6 °C 1018.8 hPa North 1.6 km/h 8 km/h 54% 0 mm 175 W/m2
18:30 31.8 °C 21.7 °C 1018.8 hPa North 1.6 km/h 6.4 km/h 55% 0 mm 144 W/m2
18:40 31.6 °C 21.4 °C 1019.2 hPa Calm   4.8 km/h 55% 0 mm 71 W/m2
18:50 31.1 °C 22.4 °C 1019.2 hPa Calm   3.2 km/h 60% 0 mm 50 W/m2
19:00 30.6 °C 22.4 °C 1019.2 hPa Calm   1.6 km/h 62% 0 mm 35 W/m2
19:10 30 °C 21.9 °C 1019.2 hPa Calm   3.2 km/h 62% 0 mm 29 W/m2
19:20 29.5 °C 21.7 °C 1019.2 hPa Calm   3.2 km/h 63% 0 mm 19 W/m2
19:30 29.1 °C 21.8 °C 1019.2 hPa Calm   3.2 km/h 65% 0 mm 12 W/m2
19:40 28.7 °C 22.2 °C 1019.2 hPa South 3.2 km/h 4.8 km/h 68% 0 mm 8 W/m2
19:50 28.3 °C 22 °C 1019.2 hPa South 3.2 km/h 6.4 km/h 69% 0 mm 4 W/m2
20:00 27.8 °C 21.8 °C 1018.8 hPa South 1.6 km/h 8 km/h 70% 0 mm 1 W/m2
20:10 27.4 °C 21.4 °C 1018.8 hPa SSW 3.2 km/h 6.4 km/h 70% 0 mm 0 W/m2
20:20 27 °C 21.5 °C 1018.8 hPa SSW 3.2 km/h 9.7 km/h 72% 0 mm 0 W/m2
20:30 26.8 °C 21.6 °C 1018.8 hPa SW 1.6 km/h 4.8 km/h 73% 0 mm 0 W/m2
20:40 26.7 °C 21.4 °C 1018.8 hPa Calm   3.2 km/h 73% 0 mm 0 W/m2
20:50 26.5 °C 21.5 °C 1018.8 hPa WNW 3.2 km/h 3.2 km/h 74% 0 mm 0 W/m2
21:00 26.2 °C 21.4 °C 1019.2 hPa West 3.2 km/h 4.8 km/h 75% 0 mm 0 W/m2
21:10 25.9 °C 21.6 °C 1019.2 hPa WSW 1.6 km/h 6.4 km/h 77% 0 mm 0 W/m2
21:20 25.6 °C 21.2 °C 1019.5 hPa SW 3.2 km/h 6.4 km/h 77% 0 mm 0 W/m2
21:30 25 °C 20.9 °C 1019.5 hPa West 4.8 km/h 8 km/h 78% 0 mm 0 W/m2
21:40 24.7 °C 20.6 °C 1019.5 hPa West 1.6 km/h 6.4 km/h 78% 0 mm 0 W/m2
21:50 24.4 °C 20.3 °C 1019.5 hPa SSW 1.6 km/h 3.2 km/h 78% 0 mm 0 W/m2
22:00 24.2 °C 20.3 °C 1019.9 hPa SW 3.2 km/h 3.2 km/h 79% 0 mm 0 W/m2
22:10 23.8 °C 20 °C 1019.9 hPa SW 1.6 km/h 4.8 km/h 79% 0 mm 0 W/m2
22:20 23.6 °C 19.7 °C 1019.9 hPa South 3.2 km/h 4.8 km/h 79% 0 mm 0 W/m2
22:30 23.2 °C 19.6 °C 1019.9 hPa South 3.2 km/h 4.8 km/h 80% 0 mm 0 W/m2
22:40 23 °C 19.4 °C 1019.9 hPa NW 1.6 km/h 3.2 km/h 80% 0 mm 0 W/m2
22:50 22.8 °C 19.4 °C 1019.9 hPa SSW 3.2 km/h 6.4 km/h 81% 0 mm 0 W/m2
23:00 22.6 °C 19.2 °C 1019.9 hPa Calm   3.2 km/h 81% 0 mm 0 W/m2
23:10 22.4 °C 19.4 °C 1020.2 hPa Calm   3.2 km/h 83% 0 mm 0 W/m2
23:20 22.2 °C 19.4 °C 1020.2 hPa Calm   3.2 km/h 84% 0 mm 0 W/m2
23:30 21.8 °C 19 °C 1020.2 hPa Calm   3.2 km/h 84% 0 mm 0 W/m2
23:40 21.6 °C 18.9 °C 1020.5 hPa Calm   1.6 km/h 85% 0 mm 0 W/m2
23:50 21.3 °C 18.7 °C 1020.5 hPa WSW 1.6 km/h 3.2 km/h 85% 0 mm 0 W/m2
Knjazevac, Serbia
Compliments of Weather Underground - 2 mb